Time;durP1;ratioP1;P1;durP2;ratioP2;P2;SDS_P1;SDS_P2;PMS_P1;PMS_P2;Temp;Humidity;BMP_temperature;BMP_pressure;BME280_temperature;BME280_humidity;BME280_pressure;Samples;Min_cycle;Max_cycle;Signal;HPM_P1;HPM_P2
2023/02/05 00:01:27;;;;;;;20.40;14.07;;;8.60;99.90;;;;;;4923378;29;20259;-79
2023/02/05 00:03:55;;;;;;;23.40;13.90;;;8.60;99.90;;;;;;4934340;29;20606;-79
2023/02/05 00:06:22;;;;;;;25.47;14.43;;;8.60;99.90;;;;;;4930338;28;20218;-79
2023/02/05 00:08:49;;;;;;;23.63;15.60;;;8.50;99.90;;;;;;4924462;29;20449;-79
2023/02/05 00:11:16;;;;;;;23.60;15.40;;;8.50;99.90;;;;;;4924340;29;20247;-78
2023/02/05 00:13:43;;;;;;;26.73;15.37;;;8.50;99.90;;;;;;4924066;29;20622;-78
2023/02/05 00:16:12;;;;;;;24.60;15.37;;;8.50;99.90;;;;;;4924639;29;20229;-79
2023/02/05 00:18:39;;;;;;;24.43;15.00;;;8.50;99.90;;;;;;4923150;29;20221;-78
2023/02/05 00:21:08;;;;;;;20.87;14.30;;;8.50;99.90;;;;;;4924225;29;20212;-79
2023/02/05 00:23:35;;;;;;;21.93;14.73;;;8.50;99.90;;;;;;4924106;29;20677;-79
2023/02/05 00:26:03;;;;;;;23.87;14.33;;;8.50;99.90;;;;;;4923917;29;20349;-79
2023/02/05 00:28:32;;;;;;;22.27;15.03;;;8.50;99.90;;;;;;4924138;29;20724;-79
2023/02/05 00:30:58;;;;;;;26.00;14.63;;;8.50;99.90;;;;;;4924261;29;20341;-80
2023/02/05 00:33:25;;;;;;;26.77;13.50;;;8.60;99.90;;;;;;4923509;29;20231;-78
2023/02/05 00:35:52;;;;;;;22.73;12.90;;;8.60;99.90;;;;;;4923622;29;20228;-80
2023/02/05 00:38:21;;;;;;;16.00;10.47;;;8.60;99.90;;;;;;4923697;29;21047;-78
2023/02/05 00:40:47;;;;;;;18.37;10.00;;;8.60;99.90;;;;;;4923283;29;20213;-79
2023/02/05 00:43:14;;;;;;;16.73;9.77;;;8.60;99.90;;;;;;4924147;29;20202;-80
2023/02/05 00:45:41;;;;;;;14.33;8.43;;;8.60;99.90;;;;;;4923052;29;20337;-79
2023/02/05 00:48:08;;;;;;;12.73;7.37;;;8.60;99.90;;;;;;4923485;29;20264;-79
2023/02/05 00:50:35;;;;;;;15.80;7.50;;;8.50;99.90;;;;;;4923172;29;20209;-79
2023/02/05 00:53:02;;;;;;;10.57;6.77;;;8.60;99.90;;;;;;4923481;29;20324;-79
2023/02/05 00:55:30;;;;;;;14.00;7.57;;;8.60;99.90;;;;;;4922698;29;20212;-79
2023/02/05 00:58:00;;;;;;;9.37;5.60;;;8.50;99.90;;;;;;4907978;29;20236;-80
2023/02/05 01:00:27;;;;;;;10.07;5.73;;;8.60;99.90;;;;;;4923395;29;20217;-79
2023/02/05 01:02:54;;;;;;;10.27;6.20;;;8.60;99.90;;;;;;4923678;29;20606;-80
2023/02/05 01:05:21;;;;;;;9.27;5.93;;;8.60;99.90;;;;;;4923617;29;20208;-80
2023/02/05 01:07:48;;;;;;;11.90;5.30;;;8.60;99.90;;;;;;4923099;29;20214;-77
2023/02/05 01:10:15;;;;;;;7.47;3.43;;;8.70;99.90;;;;;;4926298;29;20210;-77
2023/02/05 01:12:44;;;;;;;7.77;3.33;;;8.70;99.90;;;;;;4926028;29;20216;-79
2023/02/05 01:15:13;;;;;;;7.40;3.67;;;8.70;99.90;;;;;;4925181;29;20293;-81
2023/02/05 01:17:40;;;;;;;9.47;3.33;;;8.70;99.90;;;;;;4924981;28;20540;-79
2023/02/05 01:20:09;;;;;;;6.30;2.43;;;8.70;99.90;;;;;;4925737;29;20788;-80
2023/02/05 01:22:36;;;;;;;5.10;3.20;;;8.70;99.90;;;;;;4924950;29;20618;-77
2023/02/05 01:25:03;;;;;;;6.00;2.60;;;8.80;99.90;;;;;;4925998;29;20227;-78
2023/02/05 01:27:30;;;;;;;4.27;2.07;;;8.70;99.90;;;;;;4925044;28;20206;-78
2023/02/05 01:29:58;;;;;;;7.70;2.20;;;8.80;99.90;;;;;;4925676;29;20198;-77
2023/02/05 01:32:25;;;;;;;6.37;2.10;;;8.80;99.90;;;;;;4926290;29;20599;-79
2023/02/05 01:34:52;;;;;;;6.67;2.47;;;8.80;99.90;;;;;;4930465;28;20233;-77
2023/02/05 01:37:19;;;;;;;9.30;2.20;;;8.80;99.90;;;;;;4945193;28;20239;-78
2023/02/05 01:39:46;;;;;;;10.33;2.90;;;8.80;99.90;;;;;;4943755;28;20216;-79
2023/02/05 01:42:17;;;;;;;7.03;2.33;;;8.80;99.90;;;;;;4945996;28;20219;-79
2023/02/05 01:44:44;;;;;;;5.70;2.00;;;8.80;99.90;;;;;;4944282;29;20202;-78
2023/02/05 01:47:13;;;;;;;5.93;2.50;;;8.70;99.90;;;;;;4945503;28;20525;-78
2023/02/05 01:49:42;;;;;;;10.83;3.00;;;8.70;99.90;;;;;;4927777;29;20214;-78
2023/02/05 01:52:14;;;;;;;7.57;1.87;;;8.70;99.90;;;;;;4929791;29;20233;-78
2023/02/05 01:54:44;;;;;;;5.27;1.90;;;8.70;99.90;;;;;;4929234;29;20209;-77
2023/02/05 01:57:16;;;;;;;9.03;2.40;;;8.60;99.90;;;;;;4929623;28;20590;-78
2023/02/05 01:59:45;;;;;;;8.33;2.30;;;8.70;99.90;;;;;;4929756;29;20244;-77
2023/02/05 02:02:13;;;;;;;6.57;2.40;;;8.70;99.90;;;;;;4929611;28;20212;-78
2023/02/05 02:04:42;;;;;;;5.63;2.53;;;8.60;99.90;;;;;;4927957;29;20210;-78
2023/02/05 02:07:11;;;;;;;8.10;2.33;;;8.70;99.90;;;;;;4928678;29;20254;-79
2023/02/05 02:09:39;;;;;;;6.93;2.53;;;8.70;99.90;;;;;;4929746;29;20216;-77
2023/02/05 02:12:07;;;;;;;6.03;2.20;;;8.70;99.90;;;;;;4928991;29;20217;-78
2023/02/05 02:14:37;;;;;;;10.53;2.77;;;8.60;99.90;;;;;;4929500;29;20213;-77
2023/02/05 02:17:07;;;;;;;11.20;3.13;;;8.60;99.90;;;;;;4929463;29;20718;-78
2023/02/05 02:19:42;;;;;;;10.03;2.80;;;8.70;99.90;;;;;;4928962;29;20205;-79
2023/02/05 02:22:29;;;;;;;8.13;3.07;;;8.70;99.90;;;;;;4929199;29;20214;-78
2023/02/05 02:25:11;;;;;;;8.63;3.00;;;8.70;99.90;;;;;;4929434;29;20194;-78
2023/02/05 02:27:47;;;;;;;13.60;4.00;;;8.70;99.90;;;;;;4929246;29;20206;-77
2023/02/05 02:30:23;;;;;;;13.43;4.30;;;8.80;99.90;;;;;;4929184;28;20224;-78
2023/02/05 02:32:58;;;;;;;14.30;4.67;;;8.80;99.90;;;;;;4928390;29;20205;-79
2023/02/05 02:35:30;;;;;;;12.00;4.50;;;8.80;99.90;;;;;;4930257;29;20200;-79
2023/02/05 02:38:04;;;;;;;11.70;4.23;;;8.80;99.90;;;;;;4928964;28;20238;-78
2023/02/05 02:40:37;;;;;;;14.80;4.27;;;8.70;99.90;;;;;;4928252;28;20213;-77
2023/02/05 02:43:09;;;;;;;10.33;3.70;;;8.70;99.90;;;;;;4928857;29;20848;-79
2023/02/05 02:45:43;;;;;;;13.27;4.00;;;8.80;99.90;;;;;;4927508;29;20229;-78
2023/02/05 02:48:11;;;;;;;11.60;4.00;;;8.70;99.90;;;;;;4927818;29;20213;-78
2023/02/05 02:50:43;;;;;;;10.67;4.93;;;8.80;99.90;;;;;;4927566;29;20194;-80
2023/02/05 02:53:14;;;;;;;11.87;3.63;;;8.70;99.90;;;;;;4928085;29;20198;-80
2023/02/05 02:55:43;;;;;;;10.07;3.60;;;8.70;99.90;;;;;;4928990;29;20204;-79
2023/02/05 02:58:25;;;;;;;11.93;4.80;;;8.70;99.90;;;;;;4929352;29;20977;-78
2023/02/05 03:00:53;;;;;;;14.10;5.90;;;8.70;99.90;;;;;;4928166;29;20200;-79
2023/02/05 03:03:22;;;;;;;12.97;5.73;;;8.60;99.90;;;;;;4928984;29;20233;-79
2023/02/05 03:05:51;;;;;;;10.23;6.20;;;8.60;99.90;;;;;;4929535;29;20337;-78
2023/02/05 03:08:22;;;;;;;18.03;8.50;;;8.60;99.90;;;;;;4928329;29;20397;-78
2023/02/05 03:10:55;;;;;;;11.87;7.40;;;8.60;99.90;;;;;;4928830;29;20285;-78
2023/02/05 03:13:24;;;;;;;14.30;7.00;;;8.60;99.90;;;;;;4929401;29;20641;-78
2023/02/05 03:15:51;;;;;;;16.50;8.30;;;8.50;99.90;;;;;;4927787;28;20289;-78
2023/02/05 03:18:19;;;;;;;16.73;8.13;;;8.50;99.90;;;;;;4927990;28;20237;-78
2023/02/05 03:20:52;;;;;;;19.33;9.43;;;8.50;99.90;;;;;;4928097;29;20229;-78
2023/02/05 03:23:19;;;;;;;16.00;7.90;;;8.50;99.90;;;;;;4928564;29;20198;-78
2023/02/05 03:25:46;;;;;;;12.53;7.63;;;8.40;99.90;;;;;;4928025;28;20603;-78
2023/02/05 03:28:14;;;;;;;14.23;8.20;;;8.40;99.90;;;;;;4928461;29;20197;-78
2023/02/05 03:30:54;;;;;;;11.00;7.83;;;8.40;99.90;;;;;;4928553;29;20210;-78
2023/02/05 03:33:35;;;;;;;16.33;6.63;;;8.50;99.90;;;;;;4928489;29;20598;-77
2023/02/05 03:36:09;;;;;;;10.30;5.50;;;8.50;99.90;;;;;;4928206;29;20204;-79
2023/02/05 03:38:50;;;;;;;9.23;4.10;;;8.50;99.90;;;;;;4935344;28;20277;-77
2023/02/05 03:41:21;;;;;;;8.03;3.90;;;8.50;99.90;;;;;;4947452;28;20235;-77
2023/02/05 03:43:58;;;;;;;7.77;3.90;;;8.50;99.90;;;;;;4945877;28;20866;-77
2023/02/05 03:46:36;;;;;;;9.33;3.63;;;8.50;99.90;;;;;;4947143;28;20327;-76
2023/02/05 03:49:17;;;;;;;9.50;3.60;;;8.50;99.90;;;;;;4945918;28;20221;-77
2023/02/05 03:51:50;;;;;;;6.63;3.47;;;8.50;99.90;;;;;;4947020;28;20604;-77
2023/02/05 03:54:22;;;;;;;8.93;3.70;;;8.40;99.90;;;;;;4945827;28;20590;-77
2023/02/05 03:56:57;;;;;;;9.60;3.40;;;8.40;99.90;;;;;;4945882;28;20189;-77
2023/02/05 03:59:25;;;;;;;8.97;3.70;;;8.40;99.90;;;;;;4945767;28;20283;-77
2023/02/05 04:01:54;;;;;;;8.90;2.93;;;8.40;99.90;;;;;;4927288;28;20214;-77
2023/02/05 04:04:21;;;;;;;8.90;3.17;;;8.30;99.90;;;;;;4927204;29;20210;-78
2023/02/05 04:06:51;;;;;;;42.47;4.70;;;8.30;99.90;;;;;;4926027;29;20224;-78
2023/02/05 04:09:19;;;;;;;9.97;2.67;;;8.30;99.90;;;;;;4927143;29;20206;-77
2023/02/05 04:11:46;;;;;;;13.90;3.17;;;8.20;99.90;;;;;;4926669;29;20225;-78
2023/02/05 04:14:12;;;;;;;16.97;3.33;;;8.20;99.90;;;;;;4927436;29;20210;-78
2023/02/05 04:16:39;;;;;;;13.20;2.87;;;8.10;99.90;;;;;;4926394;28;20547;-78
2023/02/05 04:19:08;;;;;;;11.40;2.43;;;8.10;99.90;;;;;;4927462;29;20293;-78
2023/02/05 04:21:34;;;;;;;14.63;2.50;;;8.10;99.90;;;;;;4927477;29;20218;-78
2023/02/05 04:24:01;;;;;;;28.47;3.60;;;8.00;99.90;;;;;;4927688;29;20348;-79
2023/02/05 04:26:28;;;;;;;21.00;3.53;;;8.00;99.90;;;;;;4926600;29;20209;-79
2023/02/05 04:28:55;;;;;;;14.70;2.83;;;8.00;99.90;;;;;;4926859;29;20201;-79
2023/02/05 04:31:22;;;;;;;18.67;3.87;;;7.90;99.90;;;;;;4926635;29;20308;-80
2023/02/05 04:33:49;;;;;;;20.23;3.47;;;7.80;99.90;;;;;;4926473;29;20199;-78
2023/02/05 04:36:17;;;;;;;14.67;3.23;;;7.80;99.90;;;;;;4927024;28;20219;-79
2023/02/05 04:38:44;;;;;;;17.63;3.37;;;7.70;99.90;;;;;;4926080;29;20314;-79
2023/02/05 04:41:11;;;;;;;17.87;3.50;;;7.70;99.90;;;;;;4927037;29;20214;-79
2023/02/05 04:43:38;;;;;;;22.43;5.30;;;7.60;99.90;;;;;;4927259;29;20516;-79
2023/02/05 04:46:06;;;;;;;14.77;3.87;;;7.60;99.90;;;;;;4925987;29;20261;-79
2023/02/05 04:48:33;;;;;;;14.73;2.63;;;7.50;99.90;;;;;;4926014;28;20629;-79
2023/02/05 04:51:00;;;;;;;11.50;3.53;;;7.50;99.90;;;;;;4926686;29;20332;-79
2023/02/05 04:53:28;;;;;;;16.43;3.03;;;7.40;99.90;;;;;;4925985;29;20595;-78
2023/02/05 04:56:04;;;;;;;11.57;2.73;;;7.30;99.90;;;;;;4926917;29;20206;-78
2023/02/05 04:58:31;;;;;;;11.90;2.00;;;7.30;99.90;;;;;;4926476;29;20304;-79
2023/02/05 05:00:58;;;;;;;27.93;3.93;;;7.20;99.90;;;;;;4925784;28;20572;-80
2023/02/05 05:03:25;;;;;;;12.37;2.17;;;7.20;99.90;;;;;;4926906;29;20212;-78
2023/02/05 05:05:52;;;;;;;13.13;2.23;;;7.20;99.90;;;;;;4926247;29;20210;-79
2023/02/05 05:08:19;;;;;;;12.03;2.43;;;7.10;99.90;;;;;;4926267;29;20312;-79
2023/02/05 05:10:47;;;;;;;8.17;2.30;;;7.10;99.90;;;;;;4926274;29;20198;-79
2023/02/05 05:13:14;;;;;;;16.20;2.47;;;7.10;99.90;;;;;;4927034;29;20216;-80
2023/02/05 05:15:41;;;;;;;15.73;3.37;;;7.20;99.90;;;;;;4925663;29;20214;-81
2023/02/05 05:18:08;;;;;;;12.83;2.20;;;7.20;99.90;;;;;;4926439;29;20226;-79
2023/02/05 05:20:35;;;;;;;17.00;3.40;;;7.10;99.90;;;;;;4925862;29;20202;-79
2023/02/05 05:23:02;;;;;;;12.33;3.13;;;7.10;99.90;;;;;;4926361;29;20237;-80
2023/02/05 05:25:28;;;;;;;9.67;2.00;;;7.10;99.90;;;;;;4926175;29;20557;-79
2023/02/05 05:27:57;;;;;;;13.40;2.50;;;7.10;99.90;;;;;;4925910;29;20209;-78
2023/02/05 05:30:24;;;;;;;8.87;3.00;;;7.10;99.90;;;;;;4926518;29;20214;-79
2023/02/05 05:32:50;;;;;;;15.13;3.27;;;7.10;99.90;;;;;;4925662;28;20589;-79
2023/02/05 05:35:17;;;;;;;17.63;2.60;;;7.20;99.90;;;;;;4925230;29;20223;-79
2023/02/05 05:37:44;;;;;;;14.53;2.60;;;7.20;99.90;;;;;;4926091;29;20229;-79
2023/02/05 05:45:42;;;;;;;16.73;3.77;;;7.20;99.90;;;;;;4925277;29;20344;-79
2023/02/05 05:48:09;;;;;;;12.60;2.93;;;7.20;99.90;;;;;;4925658;28;20607;-78
2023/02/05 05:50:36;;;;;;;17.83;3.20;;;7.20;99.90;;;;;;4925667;29;20202;-79
2023/02/05 05:53:03;;;;;;;15.50;3.10;;;7.20;99.90;;;;;;4926325;29;20209;-79
2023/02/05 05:55:30;;;;;;;17.63;3.07;;;7.20;99.90;;;;;;4925666;28;20210;-79
2023/02/05 05:57:58;;;;;;;12.57;4.23;;;7.20;99.90;;;;;;4926126;29;20237;-79
2023/02/05 06:00:25;;;;;;;21.17;2.97;;;7.20;99.90;;;;;;4943630;29;20688;-79
2023/02/05 06:02:52;;;;;;;17.57;4.70;;;7.20;99.90;;;;;;4944816;28;20256;-80
2023/02/05 06:05:19;;;;;;;13.03;3.10;;;7.20;99.90;;;;;;4931226;28;20330;-79
2023/02/05 06:07:46;;;;;;;18.13;3.67;;;7.20;99.90;;;;;;4925268;29;20210;-79
2023/02/05 06:10:12;;;;;;;19.37;3.80;;;7.30;99.90;;;;;;4925042;29;20206;-78
2023/02/05 06:12:39;;;;;;;19.40;3.83;;;7.30;99.90;;;;;;4925771;29;20591;-79
2023/02/05 06:15:09;;;;;;;15.53;4.03;;;7.30;99.90;;;;;;4925328;29;21018;-80
2023/02/05 06:17:36;;;;;;;20.13;3.53;;;7.30;99.90;;;;;;4924917;29;20237;-79
2023/02/05 06:20:03;;;;;;;16.77;4.60;;;7.40;99.90;;;;;;4925443;29;21053;-78
2023/02/05 06:22:29;;;;;;;17.97;3.63;;;7.40;99.90;;;;;;4925715;29;20224;-79
2023/02/05 06:24:57;;;;;;;21.30;3.83;;;7.40;99.90;;;;;;4924903;29;20625;-80
2023/02/05 06:27:23;;;;;;;24.10;4.90;;;7.40;99.90;;;;;;4925966;29;20206;-80
2023/02/05 06:29:50;;;;;;;18.43;4.50;;;7.40;99.90;;;;;;4925874;29;20209;-78
2023/02/05 06:32:20;;;;;;;18.03;3.70;;;7.40;99.90;;;;;;4925391;29;20214;-79
2023/02/05 06:34:47;;;;;;;15.80;3.10;;;7.40;99.90;;;;;;4925283;29;20206;-80
2023/02/05 06:37:14;;;;;;;17.97;4.10;;;7.40;99.90;;;;;;4927368;29;20202;-80
2023/02/05 06:39:41;;;;;;;20.57;3.70;;;7.40;99.90;;;;;;4928452;29;20607;-79
2023/02/05 06:42:08;;;;;;;20.87;3.40;;;7.40;99.90;;;;;;4928461;28;20605;-80
2023/02/05 06:44:35;;;;;;;22.93;4.80;;;7.40;99.90;;;;;;4928778;29;20320;-80
2023/02/05 06:47:02;;;;;;;20.53;4.97;;;7.40;99.90;;;;;;4928309;29;20205;-80
2023/02/05 06:49:30;;;;;;;19.97;3.43;;;7.50;99.90;;;;;;4929068;29;20650;-78
2023/02/05 06:51:57;;;;;;;17.10;3.60;;;7.40;99.90;;;;;;4927988;29;20210;-80
2023/02/05 06:54:24;;;;;;;21.17;4.30;;;7.50;99.90;;;;;;4927884;29;20210;-79
2023/02/05 06:56:51;;;;;;;23.73;4.10;;;7.40;99.90;;;;;;4928284;29;20240;-79
2023/02/05 06:59:18;;;;;;;21.50;4.17;;;7.40;99.90;;;;;;4928129;29;20309;-80
2023/02/05 07:01:45;;;;;;;18.20;3.83;;;7.40;99.90;;;;;;4928687;29;20209;-79
2023/02/05 07:04:12;;;;;;;21.73;5.00;;;7.30;99.90;;;;;;4928647;29;20281;-80
2023/02/05 07:06:40;;;;;;;23.13;4.13;;;7.30;99.90;;;;;;4927785;29;20216;-80
2023/02/05 07:09:07;;;;;;;27.27;5.00;;;7.30;99.90;;;;;;4928177;29;20202;-79
2023/02/05 07:11:34;;;;;;;25.83;4.60;;;7.30;99.90;;;;;;4928533;29;20286;-80
2023/02/05 07:14:01;;;;;;;27.10;4.67;;;7.20;99.90;;;;;;4942057;29;20212;-78
2023/02/05 07:16:30;;;;;;;29.67;5.20;;;7.20;99.90;;;;;;4929290;28;20233;-80
2023/02/05 07:18:57;;;;;;;26.93;4.93;;;7.20;99.90;;;;;;4928090;29;20698;-79
2023/02/05 07:21:25;;;;;;;26.67;5.27;;;7.20;99.90;;;;;;4927736;29;20212;-80
2023/02/05 07:23:53;;;;;;;30.43;4.57;;;7.20;99.90;;;;;;4927809;29;20595;-81
2023/02/05 07:26:20;;;;;;;29.27;6.53;;;7.20;99.90;;;;;;4928986;29;20234;-80
2023/02/05 07:28:47;;;;;;;17.73;4.60;;;7.20;99.90;;;;;;4927837;29;20206;-80
2023/02/05 07:31:17;;;;;;;25.23;4.67;;;7.20;99.90;;;;;;4928071;29;20206;-82
2023/02/05 07:33:44;;;;;;;32.43;4.97;;;7.20;99.90;;;;;;4928964;29;20568;-79
2023/02/05 07:36:15;;;;;;;27.50;5.67;;;7.20;99.90;;;;;;4927705;29;20206;-81
2023/02/05 07:38:42;;;;;;;30.80;5.50;;;7.20;99.90;;;;;;4927476;29;20710;-80
2023/02/05 07:41:12;;;;;;;27.50;4.77;;;7.20;99.90;;;;;;4927114;29;20206;-80
2023/02/05 07:43:39;;;;;;;27.07;5.80;;;7.30;99.90;;;;;;4928071;29;20210;-79
2023/02/05 07:46:08;;;;;;;39.00;7.03;;;7.30;99.90;;;;;;4934872;28;20273;-79
2023/02/05 07:48:35;;;;;;;27.83;5.87;;;7.40;99.90;;;;;;4945280;28;20197;-80
2023/02/05 07:51:03;;;;;;;34.50;6.23;;;7.50;99.90;;;;;;4946990;28;20587;-81
2023/02/05 07:53:30;;;;;;;28.33;5.90;;;7.60;99.90;;;;;;4937332;29;20274;-81
2023/02/05 07:55:57;;;;;;;33.10;6.27;;;7.60;99.90;;;;;;4926911;29;20520;-79
2023/02/05 07:58:26;;;;;;;21.20;5.77;;;7.70;99.90;;;;;;4927268;28;20627;-78
2023/02/05 08:00:53;;;;;;;32.47;6.27;;;7.70;99.90;;;;;;4942095;28;20213;-77
2023/02/05 08:03:19;;;;;;;34.17;7.10;;;7.70;99.90;;;;;;4945548;28;20198;-78
2023/02/05 08:05:46;;;;;;;35.50;14.77;;;7.80;99.90;;;;;;4940550;29;20489;-80
2023/02/05 08:08:28;;;;;;;40.63;9.80;;;7.80;99.90;;;;;;4930437;29;20866;-77
2023/02/05 08:10:57;;;;;;;36.43;6.50;;;7.80;99.90;;;;;;4944248;29;20506;-77
2023/02/05 08:13:25;;;;;;;27.17;6.03;;;7.80;99.90;;;;;;4944930;28;20798;-77
2023/02/05 08:15:52;;;;;;;22.00;4.90;;;7.80;99.90;;;;;;4938723;28;20206;-79
2023/02/05 08:18:19;;;;;;;30.00;6.83;;;7.90;99.90;;;;;;4945824;28;20228;-79
2023/02/05 08:20:46;;;;;;;32.80;6.83;;;7.90;99.90;;;;;;4945946;28;20614;-79
2023/02/05 08:23:13;;;;;;;25.67;5.83;;;7.90;99.90;;;;;;4941091;28;20317;-77
2023/02/05 08:25:41;;;;;;;34.83;6.10;;;8.00;99.90;;;;;;4945618;29;20612;-78
2023/02/05 08:28:08;;;;;;;25.50;5.23;;;8.00;99.90;;;;;;4946863;28;20190;-77
2023/02/05 08:30:37;;;;;;;26.23;5.40;;;8.00;99.90;;;;;;4939149;28;20218;-82
2023/02/05 08:33:04;;;;;;;21.83;5.27;;;8.00;99.90;;;;;;4936406;28;20216;-80
2023/02/05 08:35:30;;;;;;;32.20;6.33;;;8.20;99.90;;;;;;4948342;28;20209;-82
2023/02/05 08:37:58;;;;;;;42.07;6.37;;;8.20;99.90;;;;;;4929719;29;20905;-78
2023/02/05 08:40:25;;;;;;;35.73;6.70;;;8.30;99.90;;;;;;4928825;29;20807;-81
2023/02/05 08:42:55;;;;;;;30.57;5.33;;;8.30;99.90;;;;;;4928537;29;20599;-79
2023/02/05 08:45:22;;;;;;;26.17;6.03;;;8.20;99.90;;;;;;4946060;29;20252;-80
2023/02/05 08:47:51;;;;;;;34.50;6.23;;;8.20;99.90;;;;;;4947009;28;20205;-79
2023/02/05 08:50:19;;;;;;;28.77;5.60;;;8.20;99.90;;;;;;4945768;28;20239;-80
2023/02/05 08:52:46;;;;;;;29.50;6.87;;;8.20;99.90;;;;;;4945338;28;20217;-81
2023/02/05 08:55:14;;;;;;;39.87;7.03;;;8.20;99.90;;;;;;4927968;29;20541;-81
2023/02/05 08:57:41;;;;;;;27.93;6.07;;;8.20;99.90;;;;;;4926222;29;20669;-82
2023/02/05 09:00:09;;;;;;;34.93;6.50;;;8.20;99.90;;;;;;4926304;29;20376;-82
2023/02/05 09:02:36;;;;;;;28.80;5.93;;;8.30;99.90;;;;;;4927828;29;20288;-81
2023/02/05 09:05:04;;;;;;;32.17;7.00;;;8.30;99.90;;;;;;4928469;28;20218;-83
2023/02/05 09:07:31;;;;;;;27.83;5.77;;;8.30;99.90;;;;;;4927394;29;20518;-83
2023/02/05 09:09:58;;;;;;;29.77;6.20;;;8.30;99.90;;;;;;4927642;29;20212;-80
2023/02/05 09:12:25;;;;;;;40.00;6.97;;;8.30;99.90;;;;;;4926219;29;20210;-79
2023/02/05 09:14:52;;;;;;;36.20;7.13;;;8.30;99.90;;;;;;4926225;29;21006;-80
2023/02/05 09:17:19;;;;;;;33.60;8.13;;;8.30;99.90;;;;;;4928784;28;20233;-80
2023/02/05 09:19:46;;;;;;;35.80;6.50;;;8.40;99.90;;;;;;4944747;28;20649;-79
2023/02/05 09:22:14;;;;;;;33.47;6.13;;;8.40;99.90;;;;;;4930059;28;20213;-79
2023/02/05 09:24:41;;;;;;;33.80;8.10;;;8.30;99.90;;;;;;4925825;29;20205;-80
2023/02/05 09:27:09;;;;;;;33.90;6.60;;;8.30;99.90;;;;;;4925560;29;20220;-80
2023/02/05 09:29:36;;;;;;;31.73;8.17;;;8.40;99.90;;;;;;4926111;29;20688;-78
2023/02/05 09:32:02;;;;;;;32.53;6.93;;;8.40;99.90;;;;;;4926857;29;20861;-79
2023/02/05 09:34:31;;;;;;;35.20;6.60;;;8.40;99.90;;;;;;4926034;29;20309;-80
2023/02/05 09:36:58;;;;;;;26.37;6.27;;;8.40;99.90;;;;;;4926262;29;20325;-78
2023/02/05 09:39:26;;;;;;;24.70;7.50;;;8.50;99.90;;;;;;4927073;29;20236;-77
2023/02/05 09:41:59;;;;;;;30.17;7.03;;;8.50;99.90;;;;;;4925877;29;20218;-79
2023/02/05 09:44:49;;;;;;;41.30;7.33;;;8.50;99.90;;;;;;4926207;28;20779;-80
2023/02/05 09:47:22;;;;;;;25.17;6.17;;;8.50;99.90;;;;;;4926215;29;20281;-80
2023/02/05 09:49:55;;;;;;;27.43;5.40;;;8.50;99.90;;;;;;4936737;28;20201;-80
2023/02/05 09:52:26;;;;;;;25.63;5.90;;;8.50;99.90;;;;;;4947196;28;20204;-80
2023/02/05 09:55:01;;;;;;;30.80;6.50;;;8.60;99.90;;;;;;4948550;28;20206;-80
2023/02/05 09:57:33;;;;;;;34.03;6.80;;;8.70;99.90;;;;;;4931962;28;20205;-78
2023/02/05 10:00:00;;;;;;;32.83;6.50;;;8.70;99.90;;;;;;4948924;28;20316;-80
2023/02/05 10:02:34;;;;;;;29.73;7.20;;;8.80;99.90;;;;;;4934892;28;20214;-81
2023/02/05 10:05:01;;;;;;;41.03;7.50;;;8.90;99.90;;;;;;4937137;28;20307;-79
2023/02/05 10:07:41;;;;;;;35.50;7.00;;;8.90;99.90;;;;;;4945110;28;20547;-80
2023/02/05 10:10:25;;;;;;;22.23;6.10;;;9.00;99.90;;;;;;4944393;28;20289;-78
2023/02/05 10:13:08;;;;;;;32.80;6.27;;;8.90;99.90;;;;;;4945739;28;20211;-81
2023/02/05 10:15:49;;;;;;;37.50;6.90;;;8.90;99.90;;;;;;4948070;28;20251;-79
2023/02/05 10:18:22;;;;;;;28.13;6.10;;;8.90;99.90;;;;;;4954963;28;20287;-80
2023/02/05 10:21:00;;;;;;;34.33;7.00;;;8.90;99.90;;;;;;4952469;28;20223;-81
2023/02/05 10:23:43;;;;;;;28.57;6.63;;;8.90;99.90;;;;;;4935320;28;20900;-78
2023/02/05 10:26:13;;;;;;;26.23;5.23;;;8.90;99.90;;;;;;4929956;28;20216;-80
2023/02/05 10:29:07;;;;;;;24.43;5.43;;;8.80;99.90;;;;;;4930284;29;20302;-77
2023/02/05 10:31:41;;;;;;;35.77;7.60;;;8.70;99.90;;;;;;4945417;29;20292;-80
2023/02/05 10:34:24;;;;;;;27.13;7.37;;;8.70;99.90;;;;;;4948330;28;20990;-80
2023/02/05 10:36:53;;;;;;;33.37;7.17;;;8.70;99.90;;;;;;4947790;28;20195;-79
2023/02/05 10:39:22;;;;;;;24.07;5.33;;;8.60;99.90;;;;;;4938739;29;20238;-80
2023/02/05 10:41:53;;;;;;;42.60;6.87;;;8.60;99.90;;;;;;4928748;29;20241;-80
2023/02/05 10:44:28;;;;;;;26.10;4.97;;;8.70;99.90;;;;;;4928287;29;20221;-78
2023/02/05 10:47:02;;;;;;;21.20;6.47;;;8.80;99.90;;;;;;4928440;29;20269;-80
2023/02/05 10:49:40;;;;;;;28.97;7.03;;;8.90;99.90;;;;;;4930296;28;20294;-79
2023/02/05 10:52:11;;;;;;;28.93;6.87;;;9.00;99.90;;;;;;4946751;28;20227;-81
2023/02/05 10:54:39;;;;;;;29.83;5.47;;;9.00;99.90;;;;;;4947899;29;20223;-80
2023/02/05 10:57:12;;;;;;;24.17;5.20;;;9.10;99.90;;;;;;4934546;28;20916;-80
2023/02/05 10:59:49;;;;;;;23.17;5.73;;;9.10;99.90;;;;;;4927908;28;20230;-79
2023/02/05 11:02:16;;;;;;;25.77;5.43;;;9.10;99.90;;;;;;4927694;28;20221;-78
2023/02/05 11:04:47;;;;;;;23.50;5.47;;;9.10;99.90;;;;;;4928481;29;20313;-79
2023/02/05 11:07:18;;;;;;;24.57;5.57;;;9.10;99.90;;;;;;4936514;29;20212;-78
2023/02/05 11:09:45;;;;;;;29.57;4.90;;;9.10;99.90;;;;;;4942501;29;20208;-79
2023/02/05 11:12:20;;;;;;;29.87;6.40;;;9.10;99.90;;;;;;4947064;29;20205;-80
2023/02/05 11:14:56;;;;;;;33.07;6.67;;;9.10;99.90;;;;;;4947368;29;20868;-77
2023/02/05 11:17:30;;;;;;;31.33;6.60;;;9.10;99.90;;;;;;4932476;29;20233;-79
2023/02/05 11:20:00;;;;;;;24.30;5.20;;;9.10;99.90;;;;;;4928400;29;20222;-80
2023/02/05 11:22:33;;;;;;;27.80;5.87;;;9.20;99.90;;;;;;4928442;29;20216;-78
2023/02/05 11:25:16;;;;;;;22.30;4.53;;;9.10;99.90;;;;;;4928971;29;20202;-78
2023/02/05 11:27:52;;;;;;;19.60;4.40;;;9.10;99.90;;;;;;4927864;29;20837;-79
2023/02/05 11:30:30;;;;;;;22.27;4.00;;;9.10;99.90;;;;;;4935172;29;20243;-78
2023/02/05 11:32:58;;;;;;;23.33;6.10;;;9.10;99.90;;;;;;4946851;28;20221;-79
2023/02/05 11:35:27;;;;;;;18.10;3.87;;;9.10;99.90;;;;;;4946737;28;20209;-78
2023/02/05 11:38:01;;;;;;;24.40;4.33;;;9.10;99.90;;;;;;4946490;29;20300;-79
2023/02/05 11:40:30;;;;;;;21.70;3.70;;;9.20;99.90;;;;;;4944448;29;20709;-80
2023/02/05 11:43:25;;;;;;;28.37;7.33;;;9.20;99.90;;;;;;4944012;28;20204;-79
2023/02/05 11:45:53;;;;;;;24.43;4.67;;;9.30;99.90;;;;;;4943179;28;20809;-78
2023/02/05 11:48:37;;;;;;;19.63;4.17;;;9.30;99.90;;;;;;4941169;29;20213;-79
2023/02/05 11:51:08;;;;;;;28.33;5.00;;;9.30;99.90;;;;;;4942951;28;20260;-78
2023/02/05 11:53:37;;;;;;;18.97;4.43;;;9.40;99.90;;;;;;4941193;29;20201;-79
2023/02/05 11:56:09;;;;;;;23.17;5.70;;;9.50;99.90;;;;;;4946195;28;20890;-79
2023/02/05 11:58:39;;;;;;;24.73;5.10;;;9.40;99.90;;;;;;4946393;29;20568;-79
2023/02/05 12:01:22;;;;;;;15.27;4.13;;;9.40;99.90;;;;;;4951691;23;20267;-80
2023/02/05 12:03:58;;;;;;;21.03;4.30;;;9.40;99.90;;;;;;4931188;29;20206;-78
2023/02/05 12:06:30;;;;;;;18.73;4.30;;;9.50;99.90;;;;;;4927161;29;20205;-79
2023/02/05 12:08:57;;;;;;;21.57;4.53;;;9.50;99.90;;;;;;4927357;29;20186;-78
2023/02/05 12:14:42;;;;;;;27.30;4.73;;;9.60;99.90;;;;;;4927970;29;20249;-80
2023/02/05 12:17:38;;;;;;;28.53;5.73;;;9.60;99.90;;;;;;4927127;29;20236;-80
2023/02/05 12:20:19;;;;;;;22.57;5.13;;;9.60;99.90;;;;;;4926018;28;20237;-82
2023/02/05 12:23:21;;;;;;;24.90;5.20;;;9.70;99.90;;;;;;4927736;29;20186;-80
2023/02/05 12:25:59;;;;;;;24.27;6.13;;;9.70;99.90;;;;;;4926098;29;21047;-76
2023/02/05 12:28:35;;;;;;;22.20;5.40;;;9.80;99.90;;;;;;4939303;29;20724;-78
2023/02/05 12:31:21;;;;;;;25.33;4.97;;;9.80;99.90;;;;;;4946821;29;20186;-80
2023/02/05 12:34:08;;;;;;;21.63;4.47;;;9.70;99.90;;;;;;4943698;28;20225;-79
2023/02/05 12:36:50;;;;;;;32.70;5.17;;;9.70;99.90;;;;;;4926671;29;20260;-78
2023/02/05 12:39:31;;;;;;;21.20;5.00;;;9.60;99.90;;;;;;4928406;29;20202;-77
2023/02/05 12:42:08;;;;;;;22.73;4.83;;;9.60;99.90;;;;;;4927483;29;20186;-79
2023/02/05 12:44:45;;;;;;;31.17;5.93;;;9.60;99.90;;;;;;4926264;29;20947;-80
2023/02/05 12:47:34;;;;;;;24.47;5.03;;;9.50;99.90;;;;;;4927734;29;20241;-81
2023/02/05 12:50:16;;;;;;;23.27;5.40;;;9.40;99.90;;;;;;4928459;29;20241;-81
2023/02/05 12:52:55;;;;;;;26.17;6.03;;;9.30;99.90;;;;;;4926652;29;20777;-79
2023/02/05 12:55:39;;;;;;;31.97;6.63;;;9.40;99.90;;;;;;4926972;29;20213;-78
2023/02/05 12:58:11;;;;;;;27.23;6.10;;;9.50;99.90;;;;;;4926724;29;20242;-82
2023/02/05 13:00:42;;;;;;;27.00;5.20;;;9.40;99.90;;;;;;4927005;29;20877;-78
2023/02/05 13:03:19;;;;;;;24.27;5.07;;;9.40;99.90;;;;;;4927704;29;20840;-77
2023/02/05 13:05:49;;;;;;;28.47;6.47;;;9.40;99.90;;;;;;4926216;29;20680;-77
2023/02/05 13:08:22;;;;;;;22.37;5.40;;;9.40;99.90;;;;;;4927250;29;20595;-77
2023/02/05 13:10:54;;;;;;;25.87;5.80;;;9.40;99.90;;;;;;4944795;29;20291;-78
2023/02/05 13:13:25;;;;;;;27.30;6.10;;;9.40;99.90;;;;;;4944810;29;20208;-80